sensor_id;sensor_type;location;lat;lon;timestamp;pressure;altitude;pressure_sealevel;temperature;humidity
20115;BME280;10218;42.874;25.320;2023-12-07T00:00:16;96931.69;;;5.27;100.00
20115;BME280;10218;42.874;25.320;2023-12-07T00:02:44;96936.19;;;5.07;100.00
20115;BME280;10218;42.874;25.320;2023-12-07T00:05:11;96930.00;;;4.70;100.00
20115;BME280;10218;42.874;25.320;2023-12-07T00:07:39;96936.78;;;5.01;100.00
20115;BME280;10218;42.874;25.320;2023-12-07T00:10:07;96935.28;;;4.80;100.00
20115;BME280;10218;42.874;25.320;2023-12-07T00:12:35;96929.81;;;4.91;100.00
20115;BME280;10218;42.874;25.320;2023-12-07T00:15:02;96933.56;;;5.07;100.00
20115;BME280;10218;42.874;25.320;2023-12-07T00:17:30;96930.91;;;5.07;100.00
20115;BME280;10218;42.874;25.320;2023-12-07T00:19:57;96934.91;;;5.21;100.00
20115;BME280;10218;42.874;25.320;2023-12-07T00:22:24;96938.19;;;4.96;100.00
20115;BME280;10218;42.874;25.320;2023-12-07T00:24:53;96932.72;;;5.07;100.00
20115;BME280;10218;42.874;25.320;2023-12-07T00:27:20;96940.16;;;4.74;100.00
20115;BME280;10218;42.874;25.320;2023-12-07T00:29:47;96943.91;;;4.62;100.00
20115;BME280;10218;42.874;25.320;2023-12-07T00:32:14;96952.00;;;4.22;100.00
20115;BME280;10218;42.874;25.320;2023-12-07T00:34:41;96943.53;;;4.28;100.00
20115;BME280;10218;42.874;25.320;2023-12-07T00:37:08;96944.63;;;4.64;100.00
20115;BME280;10218;42.874;25.320;2023-12-07T00:39:37;96941.44;;;4.70;100.00
20115;BME280;10218;42.874;25.320;2023-12-07T00:42:04;96953.00;;;4.31;100.00
20115;BME280;10218;42.874;25.320;2023-12-07T00:44:32;96965.09;;;4.82;100.00
20115;BME280;10218;42.874;25.320;2023-12-07T00:46:59;96957.16;;;4.72;100.00
20115;BME280;10218;42.874;25.320;2023-12-07T00:49:26;96950.78;;;4.46;100.00
20115;BME280;10218;42.874;25.320;2023-12-07T00:51:53;96957.16;;;4.72;100.00
20115;BME280;10218;42.874;25.320;2023-12-07T00:54:21;96957.28;;;4.90;100.00
20115;BME280;10218;42.874;25.320;2023-12-07T00:56:48;96962.94;;;5.04;100.00
20115;BME280;10218;42.874;25.320;2023-12-07T00:59:15;96959.06;;;4.99;100.00
20115;BME280;10218;42.874;25.320;2023-12-07T01:01:42;96960.59;;;5.01;100.00
20115;BME280;10218;42.874;25.320;2023-12-07T01:04:09;96956.12;;;5.02;100.00
20115;BME280;10218;42.874;25.320;2023-12-07T01:06:38;96957.69;;;4.85;100.00
20115;BME280;10218;42.874;25.320;2023-12-07T01:09:05;96968.31;;;4.56;100.00
20115;BME280;10218;42.874;25.320;2023-12-07T01:11:32;96973.41;;;5.06;100.00
20115;BME280;10218;42.874;25.320;2023-12-07T01:13:59;96968.25;;;4.95;100.00
20115;BME280;10218;42.874;25.320;2023-12-07T01:16:27;96967.09;;;5.26;100.00
20115;BME280;10218;42.874;25.320;2023-12-07T01:18:54;96963.16;;;5.30;100.00
20115;BME280;10218;42.874;25.320;2023-12-07T01:21:21;96961.31;;;4.84;100.00
20115;BME280;10218;42.874;25.320;2023-12-07T01:23:48;96966.87;;;4.91;100.00
20115;BME280;10218;42.874;25.320;2023-12-07T01:26:18;96962.09;;;5.04;100.00
20115;BME280;10218;42.874;25.320;2023-12-07T01:28:45;96954.13;;;5.23;100.00
20115;BME280;10218;42.874;25.320;2023-12-07T01:31:12;96945.34;;;5.13;100.00
20115;BME280;10218;42.874;25.320;2023-12-07T01:33:39;96943.44;;;5.05;100.00
20115;BME280;10218;42.874;25.320;2023-12-07T01:36:06;96939.88;;;4.78;100.00
20115;BME280;10218;42.874;25.320;2023-12-07T01:38:34;96948.19;;;5.02;100.00
20115;BME280;10218;42.874;25.320;2023-12-07T01:41:01;96948.62;;;4.88;100.00
20115;BME280;10218;42.874;25.320;2023-12-07T01:43:28;96950.22;;;4.52;100.00
20115;BME280;10218;42.874;25.320;2023-12-07T01:45:57;96945.72;;;4.91;100.00
20115;BME280;10218;42.874;25.320;2023-12-07T01:48:26;96957.31;;;4.61;100.00
20115;BME280;10218;42.874;25.320;2023-12-07T01:50:55;96955.34;;;4.53;100.00
20115;BME280;10218;42.874;25.320;2023-12-07T01:53:23;96953.53;;;4.73;100.00
20115;BME280;10218;42.874;25.320;2023-12-07T01:55:52;96958.28;;;4.69;100.00
20115;BME280;10218;42.874;25.320;2023-12-07T01:58:20;96960.47;;;4.93;100.00
20115;BME280;10218;42.874;25.320;2023-12-07T02:00:48;96956.31;;;4.81;100.00
20115;BME280;10218;42.874;25.320;2023-12-07T02:03:17;96948.62;;;4.88;100.00
20115;BME280;10218;42.874;25.320;2023-12-07T02:05:47;96948.50;;;4.89;100.00
20115;BME280;10218;42.874;25.320;2023-12-07T02:08:15;96955.59;;;4.89;100.00
20115;BME280;10218;42.874;25.320;2023-12-07T02:10:43;96951.87;;;4.24;100.00
20115;BME280;10218;42.874;25.320;2023-12-07T02:13:10;96959.25;;;4.30;100.00
20115;BME280;10218;42.874;25.320;2023-12-07T02:15:38;96966.63;;;4.74;100.00
20115;BME280;10218;42.874;25.320;2023-12-07T02:18:51;96964.38;;;4.89;100.00
20115;BME280;10218;42.874;25.320;2023-12-07T02:21:17;96960.50;;;4.64;100.00
20115;BME280;10218;42.874;25.320;2023-12-07T02:23:51;96968.81;;;4.89;100.00
20115;BME280;10218;42.874;25.320;2023-12-07T02:26:50;96964.91;;;4.93;100.00
20115;BME280;10218;42.874;25.320;2023-12-07T02:29:17;96961.44;;;5.02;100.00
20115;BME280;10218;42.874;25.320;2023-12-07T02:31:45;96961.84;;;5.07;100.00
20115;BME280;10218;42.874;25.320;2023-12-07T02:34:12;96958.56;;;4.66;100.00
20115;BME280;10218;42.874;25.320;2023-12-07T02:36:41;96974.13;;;4.79;100.00
20115;BME280;10218;42.874;25.320;2023-12-07T02:39:09;96967.72;;;4.91;100.00
20115;BME280;10218;42.874;25.320;2023-12-07T02:41:40;96959.69;;;5.20;100.00
20115;BME280;10218;42.874;25.320;2023-12-07T02:44:08;96970.78;;;4.96;100.00
20115;BME280;10218;42.874;25.320;2023-12-07T02:46:35;96968.31;;;4.76;100.00
20115;BME280;10218;42.874;25.320;2023-12-07T02:49:03;96976.09;;;4.87;100.00
20115;BME280;10218;42.874;25.320;2023-12-07T02:51:30;96958.53;;;4.86;100.00
20115;BME280;10218;42.874;25.320;2023-12-07T02:53:57;96967.00;;;4.89;100.00
20115;BME280;10218;42.874;25.320;2023-12-07T02:56:24;96966.63;;;4.65;100.00
20115;BME280;10218;42.874;25.320;2023-12-07T02:58:51;96961.03;;;4.78;100.00
20115;BME280;10218;42.874;25.320;2023-12-07T03:01:19;96969.31;;;5.21;100.00
20115;BME280;10218;42.874;25.320;2023-12-07T03:03:46;96968.84;;;5.35;100.00
20115;BME280;10218;42.874;25.320;2023-12-07T03:06:14;96960.06;;;5.35;100.00
20115;BME280;10218;42.874;25.320;2023-12-07T03:08:43;96965.47;;;4.96;100.00
20115;BME280;10218;42.874;25.320;2023-12-07T03:11:10;96964.34;;;4.99;100.00
20115;BME280;10218;42.874;25.320;2023-12-07T03:13:37;96962.69;;;5.07;100.00
20115;BME280;10218;42.874;25.320;2023-12-07T03:16:08;96973.56;;;4.85;100.00
20115;BME280;10218;42.874;25.320;2023-12-07T03:18:36;96971.91;;;4.74;100.00
20115;BME280;10218;42.874;25.320;2023-12-07T03:21:04;96979.97;;;4.83;100.00
20115;BME280;10218;42.874;25.320;2023-12-07T03:23:31;96980.16;;;4.62;100.00
20115;BME280;10218;42.874;25.320;2023-12-07T03:25:58;96974.44;;;4.76;100.00
20115;BME280;10218;42.874;25.320;2023-12-07T03:28:26;96978.88;;;4.85;100.00
20115;BME280;10218;42.874;25.320;2023-12-07T03:30:54;96986.69;;;4.48;100.00
20115;BME280;10218;42.874;25.320;2023-12-07T03:33:22;96981.53;;;4.56;100.00
20115;BME280;10218;42.874;25.320;2023-12-07T03:35:49;96989.91;;;4.61;100.00
20115;BME280;10218;42.874;25.320;2023-12-07T03:38:17;96986.97;;;4.64;100.00
20115;BME280;10218;42.874;25.320;2023-12-07T03:40:44;96979.72;;;4.76;100.00
20115;BME280;10218;42.874;25.320;2023-12-07T03:43:14;96975.53;;;4.54;100.00
20115;BME280;10218;42.874;25.320;2023-12-07T03:45:41;96987.09;;;4.53;100.00
20115;BME280;10218;42.874;25.320;2023-12-07T03:48:09;96983.34;;;4.56;100.00
20115;BME280;10218;42.874;25.320;2023-12-07T03:50:37;96985.97;;;4.85;100.00
20115;BME280;10218;42.874;25.320;2023-12-07T03:53:05;96977.19;;;4.74;100.00
20115;BME280;10218;42.874;25.320;2023-12-07T03:55:32;96981.97;;;4.61;100.00
20115;BME280;10218;42.874;25.320;2023-12-07T03:58:00;96986.69;;;4.48;100.00
20115;BME280;10218;42.874;25.320;2023-12-07T04:00:27;96987.66;;;4.47;100.00
20115;BME280;10218;42.874;25.320;2023-12-07T04:02:55;96984.56;;;4.32;100.00
20115;BME280;10218;42.874;25.320;2023-12-07T04:05:22;96981.38;;;4.39;100.00
20115;BME280;10218;42.874;25.320;2023-12-07T04:07:50;96986.47;;;4.02;100.00
20115;BME280;10218;42.874;25.320;2023-12-07T04:10:18;96987.81;;;4.36;100.00
20115;BME280;10218;42.874;25.320;2023-12-07T04:12:45;96977.47;;;4.43;100.00
20115;BME280;10218;42.874;25.320;2023-12-07T04:15:13;96985.28;;;4.54;100.00
20115;BME280;10218;42.874;25.320;2023-12-07T04:17:42;96983.06;;;4.30;100.00
20115;BME280;10218;42.874;25.320;2023-12-07T04:20:10;96989.59;;;4.36;100.00
20115;BME280;10218;42.874;25.320;2023-12-07T04:22:37;96996.41;;;4.19;100.00
20115;BME280;10218;42.874;25.320;2023-12-07T04:25:05;96990.13;;;4.01;100.00
20115;BME280;10218;42.874;25.320;2023-12-07T04:27:36;96986.75;;;3.99;100.00
20115;BME280;10218;42.874;25.320;2023-12-07T04:30:03;97001.00;;;4.26;100.00
20115;BME280;10218;42.874;25.320;2023-12-07T04:32:31;97006.06;;;3.90;100.00
20115;BME280;10218;42.874;25.320;2023-12-07T04:34:58;97001.91;;;3.97;100.00
20115;BME280;10218;42.874;25.320;2023-12-07T04:37:26;97012.63;;;3.95;100.00
20115;BME280;10218;42.874;25.320;2023-12-07T04:39:53;97020.16;;;4.00;100.00
20115;BME280;10218;42.874;25.320;2023-12-07T04:42:20;97016.47;;;4.41;100.00
20115;BME280;10218;42.874;25.320;2023-12-07T04:44:47;97017.31;;;4.41;100.00
20115;BME280;10218;42.874;25.320;2023-12-07T04:47:14;97017.75;;;4.75;100.00
20115;BME280;10218;42.874;25.320;2023-12-07T04:49:42;97018.28;;;4.79;100.00
20115;BME280;10218;42.874;25.320;2023-12-07T04:52:09;97017.16;;;5.00;100.00
20115;BME280;10218;42.874;25.320;2023-12-07T04:54:36;97020.37;;;4.85;100.00
20115;BME280;10218;42.874;25.320;2023-12-07T04:57:03;97023.97;;;5.22;100.00
20115;BME280;10218;42.874;25.320;2023-12-07T04:59:30;97026.31;;;5.25;100.00
20115;BME280;10218;42.874;25.320;2023-12-07T05:01:58;97022.16;;;5.23;100.00
20115;BME280;10218;42.874;25.320;2023-12-07T05:04:24;97020.25;;;4.86;100.00
20115;BME280;10218;42.874;25.320;2023-12-07T05:06:52;97027.59;;;4.35;100.00
20115;BME280;10218;42.874;25.320;2023-12-07T05:09:19;97033.03;;;4.52;100.00
20115;BME280;10218;42.874;25.320;2023-12-07T05:11:46;97033.31;;;4.78;100.00
20115;BME280;10218;42.874;25.320;2023-12-07T05:14:13;97035.13;;;4.58;100.00
20115;BME280;10218;42.874;25.320;2023-12-07T05:16:41;97036.25;;;4.85;100.00
20115;BME280;10218;42.874;25.320;2023-12-07T05:19:08;97041.53;;;5.13;100.00
20115;BME280;10218;42.874;25.320;2023-12-07T05:21:37;97046.56;;;4.88;100.00
20115;BME280;10218;42.874;25.320;2023-12-07T05:24:05;97049.50;;;4.65;100.00
20115;BME280;10218;42.874;25.320;2023-12-07T05:26:32;97050.94;;;4.20;100.00
20115;BME280;10218;42.874;25.320;2023-12-07T05:28:59;97043.22;;;4.57;100.00
20115;BME280;10218;42.874;25.320;2023-12-07T05:31:27;97038.19;;;4.73;100.00
20115;BME280;10218;42.874;25.320;2023-12-07T05:33:55;97052.41;;;4.62;100.00
20115;BME280;10218;42.874;25.320;2023-12-07T05:36:23;97045.44;;;4.52;100.00
20115;BME280;10218;42.874;25.320;2023-12-07T05:38:50;97055.03;;;4.43;100.00
20115;BME280;10218;42.874;25.320;2023-12-07T05:41:17;97056.03;;;4.81;100.00
20115;BME280;10218;42.874;25.320;2023-12-07T05:43:44;97059.91;;;4.57;100.00
20115;BME280;10218;42.874;25.320;2023-12-07T05:46:12;97049.50;;;4.56;100.00
20115;BME280;10218;42.874;25.320;2023-12-07T05:48:39;97054.06;;;4.63;100.00
20115;BME280;10218;42.874;25.320;2023-12-07T05:51:15;97048.25;;;4.79;100.00
20115;BME280;10218;42.874;25.320;2023-12-07T05:53:43;97063.03;;;4.13;100.00
20115;BME280;10218;42.874;25.320;2023-12-07T05:56:11;97058.81;;;4.50;100.00
20115;BME280;10218;42.874;25.320;2023-12-07T05:58:38;97066.56;;;3.93;100.00
20115;BME280;10218;42.874;25.320;2023-12-07T06:01:05;97074.41;;;4.04;100.00
20115;BME280;10218;42.874;25.320;2023-12-07T06:03:35;97072.50;;;4.15;100.00
20115;BME280;10218;42.874;25.320;2023-12-07T06:06:02;97086.25;;;4.09;100.00
20115;BME280;10218;42.874;25.320;2023-12-07T06:08:30;97084.69;;;3.97;100.00
20115;BME280;10218;42.874;25.320;2023-12-07T06:10:58;97083.59;;;4.00;100.00
20115;BME280;10218;42.874;25.320;2023-12-07T06:13:25;97090.72;;;3.78;100.00
20115;BME280;10218;42.874;25.320;2023-12-07T06:15:52;97096.28;;;4.06;100.00
20115;BME280;10218;42.874;25.320;2023-12-07T06:18:20;97096.41;;;3.74;100.00
20115;BME280;10218;42.874;25.320;2023-12-07T06:20:48;97093.19;;;4.01;100.00
20115;BME280;10218;42.874;25.320;2023-12-07T06:23:15;97085.53;;;4.07;100.00
20115;BME280;10218;42.874;25.320;2023-12-07T06:25:42;97098.19;;;4.04;100.00
20115;BME280;10218;42.874;25.320;2023-12-07T06:28:09;97103.31;;;4.26;100.00
20115;BME280;10218;42.874;25.320;2023-12-07T06:30:36;97094.28;;;4.38;100.00
20115;BME280;10218;42.874;25.320;2023-12-07T06:33:04;97089.87;;;4.67;100.00
20115;BME280;10218;42.874;25.320;2023-12-07T06:35:31;97103.03;;;4.39;100.00
20115;BME280;10218;42.874;25.320;2023-12-07T06:37:59;97101.53;;;3.96;100.00
20115;BME280;10218;42.874;25.320;2023-12-07T06:40:26;97114.31;;;3.91;100.00
20115;BME280;10218;42.874;25.320;2023-12-07T06:42:53;97109.12;;;3.90;100.00
20115;BME280;10218;42.874;25.320;2023-12-07T06:45:20;97114.84;;;4.25;100.00
20115;BME280;10218;42.874;25.320;2023-12-07T06:47:47;97100.56;;;4.07;100.00
20115;BME280;10218;42.874;25.320;2023-12-07T06:50:14;97114.78;;;4.46;100.00
20115;BME280;10218;42.874;25.320;2023-12-07T06:52:41;97112.03;;;3.86;100.00
20115;BME280;10218;42.874;25.320;2023-12-07T06:55:09;97092.25;;;3.81;100.00
20115;BME280;10218;42.874;25.320;2023-12-07T06:57:37;97109.34;;;4.07;100.00
20115;BME280;10218;42.874;25.320;2023-12-07T07:00:05;97095.69;;;3.72;100.00
20115;BME280;10218;42.874;25.320;2023-12-07T07:02:38;97114.44;;;4.29;100.00
20115;BME280;10218;42.874;25.320;2023-12-07T07:05:06;97114.31;;;3.91;100.00
20115;BME280;10218;42.874;25.320;2023-12-07T07:07:33;97116.78;;;3.93;100.00
20115;BME280;10218;42.874;25.320;2023-12-07T07:10:01;97113.84;;;4.16;100.00
20115;BME280;10218;42.874;25.320;2023-12-07T07:12:28;97108.56;;;4.76;100.00
20115;BME280;10218;42.874;25.320;2023-12-07T07:14:56;97102.84;;;4.11;100.00
20115;BME280;10218;42.874;25.320;2023-12-07T07:17:23;97115.13;;;3.92;100.00
20115;BME280;10218;42.874;25.320;2023-12-07T07:19:50;97117.38;;;4.36;100.00
20115;BME280;10218;42.874;25.320;2023-12-07T07:22:18;97120.59;;;4.00;100.00
20115;BME280;10218;42.874;25.320;2023-12-07T07:24:45;97118.53;;;4.62;100.00
20115;BME280;10218;42.874;25.320;2023-12-07T07:27:12;97113.81;;;4.56;100.00
20115;BME280;10218;42.874;25.320;2023-12-07T07:29:39;97109.50;;;4.55;100.00
20115;BME280;10218;42.874;25.320;2023-12-07T07:32:06;97126.84;;;4.39;100.00
20115;BME280;10218;42.874;25.320;2023-12-07T07:34:34;97133.16;;;3.86;100.00
20115;BME280;10218;42.874;25.320;2023-12-07T07:37:01;97128.00;;;4.06;100.00
20115;BME280;10218;42.874;25.320;2023-12-07T07:39:30;97121.16;;;4.03;100.00
20115;BME280;10218;42.874;25.320;2023-12-07T07:41:57;97130.25;;;4.69;100.00
20115;BME280;10218;42.874;25.320;2023-12-07T07:44:24;97138.53;;;4.36;100.00
20115;BME280;10218;42.874;25.320;2023-12-07T07:46:52;97140.41;;;4.55;100.00
20115;BME280;10218;42.874;25.320;2023-12-07T07:49:19;97152.78;;;4.54;100.00
20115;BME280;10218;42.874;25.320;2023-12-07T07:51:46;97149.87;;;4.57;100.00
20115;BME280;10218;42.874;25.320;2023-12-07T07:54:13;97153.09;;;4.61;100.00
20115;BME280;10218;42.874;25.320;2023-12-07T07:56:40;97141.03;;;4.97;100.00
20115;BME280;10218;42.874;25.320;2023-12-07T07:59:07;97149.25;;;4.35;100.00
20115;BME280;10218;42.874;25.320;2023-12-07T08:01:34;97143.06;;;4.64;100.00
20115;BME280;10218;42.874;25.320;2023-12-07T08:04:02;97146.16;;;4.69;100.00
20115;BME280;10218;42.874;25.320;2023-12-07T08:06:29;97158.91;;;4.15;100.00
20115;BME280;10218;42.874;25.320;2023-12-07T08:08:57;97157.94;;;4.46;100.00
20115;BME280;10218;42.874;25.320;2023-12-07T08:11:25;97159.00;;;4.34;100.00
20115;BME280;10218;42.874;25.320;2023-12-07T08:13:52;97166.41;;;4.10;100.00
20115;BME280;10218;42.874;25.320;2023-12-07T08:16:19;97162.53;;;4.14;100.00
20115;BME280;10218;42.874;25.320;2023-12-07T08:18:47;97162.41;;;4.55;100.00
20115;BME280;10218;42.874;25.320;2023-12-07T08:21:21;97163.44;;;4.34;100.00
20115;BME280;10218;42.874;25.320;2023-12-07T08:23:50;97163.94;;;4.18;100.00
20115;BME280;10218;42.874;25.320;2023-12-07T08:26:18;97168.53;;;3.85;100.00
20115;BME280;10218;42.874;25.320;2023-12-07T08:28:45;97176.16;;;3.88;100.00
20115;BME280;10218;42.874;25.320;2023-12-07T08:31:12;97181.91;;;4.24;100.00
20115;BME280;10218;42.874;25.320;2023-12-07T08:33:39;97168.63;;;4.05;100.00
20115;BME280;10218;42.874;25.320;2023-12-07T08:36:06;97164.59;;;3.80;100.00
20115;BME280;10218;42.874;25.320;2023-12-07T08:38:35;97173.53;;;3.88;100.00
20115;BME280;10218;42.874;25.320;2023-12-07T08:41:02;97172.97;;;4.15;100.00
20115;BME280;10218;42.874;25.320;2023-12-07T08:43:29;97176.75;;;4.22;100.00
20115;BME280;10218;42.874;25.320;2023-12-07T08:45:57;97179.63;;;4.10;100.00
20115;BME280;10218;42.874;25.320;2023-12-07T08:48:26;97181.91;;;4.24;100.00
20115;BME280;10218;42.874;25.320;2023-12-07T08:50:53;97187.53;;;4.30;100.00
20115;BME280;10218;42.874;25.320;2023-12-07T08:53:20;97176.22;;;4.68;100.00
20115;BME280;10218;42.874;25.320;2023-12-07T08:55:47;97171.78;;;4.79;100.00
20115;BME280;10218;42.874;25.320;2023-12-07T08:58:14;97173.09;;;4.44;100.00
20115;BME280;10218;42.874;25.320;2023-12-07T09:00:42;97172.44;;;4.52;100.00
20115;BME280;10218;42.874;25.320;2023-12-07T09:03:10;97166.13;;;5.02;100.00
20115;BME280;10218;42.874;25.320;2023-12-07T09:05:37;97169.66;;;4.63;100.00
20115;BME280;10218;42.874;25.320;2023-12-07T09:08:05;97164.44;;;4.42;100.00
20115;BME280;10218;42.874;25.320;2023-12-07T09:10:33;97168.66;;;4.14;100.00
20115;BME280;10218;42.874;25.320;2023-12-07T09:13:00;97172.97;;;4.15;100.00
20115;BME280;10218;42.874;25.320;2023-12-07T09:15:27;97170.03;;;3.88;100.00
20115;BME280;10218;42.874;25.320;2023-12-07T09:17:54;97162.16;;;3.98;100.00
20115;BME280;10218;42.874;25.320;2023-12-07T09:20:21;97168.41;;;4.27;100.00
20115;BME280;10218;42.874;25.320;2023-12-07T09:22:49;97150.78;;;4.37;100.00
20115;BME280;10218;42.874;25.320;2023-12-07T09:25:16;97163.59;;;3.81;100.00
20115;BME280;10218;42.874;25.320;2023-12-07T09:27:44;97157.31;;;4.03;100.00
20115;BME280;10218;42.874;25.320;2023-12-07T09:30:12;97160.13;;;4.32;100.00
20115;BME280;10218;42.874;25.320;2023-12-07T09:32:40;97163.50;;;4.13;100.00
20115;BME280;10218;42.874;25.320;2023-12-07T09:35:09;97150.03;;;3.85;100.00
20115;BME280;10218;42.874;25.320;2023-12-07T09:37:57;97160.78;;;4.34;100.00
20115;BME280;10218;42.874;25.320;2023-12-07T09:40:24;97160.56;;;4.06;100.00
20115;BME280;10218;42.874;25.320;2023-12-07T09:42:52;97161.72;;;4.23;100.00
20115;BME280;10218;42.874;25.320;2023-12-07T09:45:20;97163.03;;;4.38;100.00
20115;BME280;10218;42.874;25.320;2023-12-07T09:47:52;97164.66;;;4.20;100.00
20115;BME280;10218;42.874;25.320;2023-12-07T09:50:24;97163.81;;;4.19;100.00
20115;BME280;10218;42.874;25.320;2023-12-07T09:52:53;97161.72;;;4.63;100.00
20115;BME280;10218;42.874;25.320;2023-12-07T09:55:25;97153.88;;;5.01;100.00
20115;BME280;10218;42.874;25.320;2023-12-07T09:57:53;97155.59;;;4.62;100.00
20115;BME280;10218;42.874;25.320;2023-12-07T10:00:23;97159.72;;;4.36;100.00
20115;BME280;10218;42.874;25.320;2023-12-07T10:02:51;97163.84;;;4.29;100.00
20115;BME280;10218;42.874;25.320;2023-12-07T10:05:19;97152.19;;;4.32;100.00
20115;BME280;10218;42.874;25.320;2023-12-07T10:07:48;97142.41;;;4.82;100.00
20115;BME280;10218;42.874;25.320;2023-12-07T10:10:17;97148.25;;;4.76;100.00
20115;BME280;10218;42.874;25.320;2023-12-07T10:12:53;97145.44;;;4.67;100.00
20115;BME280;10218;42.874;25.320;2023-12-07T10:15:23;97150.78;;;4.77;100.00
20115;BME280;10218;42.874;25.320;2023-12-07T10:17:56;97143.63;;;4.78;100.00
20115;BME280;10218;42.874;25.320;2023-12-07T10:20:28;97140.00;;;4.69;100.00
20115;BME280;10218;42.874;25.320;2023-12-07T10:23:08;97123.19;;;4.89;100.00
20115;BME280;10218;42.874;25.320;2023-12-07T10:25:40;97142.22;;;4.54;100.00
20115;BME280;10218;42.874;25.320;2023-12-07T10:28:10;97142.66;;;4.69;100.00
20115;BME280;10218;42.874;25.320;2023-12-07T10:30:40;97132.94;;;4.79;100.00
20115;BME280;10218;42.874;25.320;2023-12-07T10:33:09;97120.41;;;4.81;100.00
20115;BME280;10218;42.874;25.320;2023-12-07T10:35:40;97125.72;;;4.91;100.00
20115;BME280;10218;42.874;25.320;2023-12-07T10:38:09;97125.16;;;4.97;100.00
20115;BME280;10218;42.874;25.320;2023-12-07T10:40:36;97131.31;;;4.38;100.00
20115;BME280;10218;42.874;25.320;2023-12-07T10:43:05;97139.56;;;4.54;100.00
20115;BME280;10218;42.874;25.320;2023-12-07T10:45:34;97135.69;;;4.78;100.00
20115;BME280;10218;42.874;25.320;2023-12-07T10:48:11;97129.63;;;4.96;100.00
20115;BME280;10218;42.874;25.320;2023-12-07T10:50:42;97127.50;;;4.71;100.00
20115;BME280;10218;42.874;25.320;2023-12-07T10:53:27;97123.06;;;5.29;100.00
20115;BME280;10218;42.874;25.320;2023-12-07T10:56:00;97127.53;;;5.00;100.00
20115;BME280;10218;42.874;25.320;2023-12-07T10:58:27;97122.34;;;4.79;100.00
20115;BME280;10218;42.874;25.320;2023-12-07T11:00:55;97126.25;;;4.94;100.00
20115;BME280;10218;42.874;25.320;2023-12-07T11:03:24;97123.19;;;5.37;100.00
20115;BME280;10218;42.874;25.320;2023-12-07T11:05:51;97124.72;;;5.30;100.00
20115;BME280;10218;42.874;25.320;2023-12-07T11:08:34;97122.94;;;5.21;100.00
20115;BME280;10218;42.874;25.320;2023-12-07T11:11:24;97118.84;;;4.79;100.00
20115;BME280;10218;42.874;25.320;2023-12-07T11:13:59;97122.63;;;4.66;100.00
20115;BME280;10218;42.874;25.320;2023-12-07T11:16:32;97124.03;;;4.99;100.00
20115;BME280;10218;42.874;25.320;2023-12-07T11:18:59;97117.06;;;5.08;100.00
20115;BME280;10218;42.874;25.320;2023-12-07T11:21:27;97122.81;;;4.44;100.00
20115;BME280;10218;42.874;25.320;2023-12-07T11:23:54;97119.69;;;4.98;100.00
20115;BME280;10218;42.874;25.320;2023-12-07T11:26:25;97119.81;;;4.78;100.00
20115;BME280;10218;42.874;25.320;2023-12-07T11:28:55;97116.62;;;4.84;100.00
20115;BME280;10218;42.874;25.320;2023-12-07T11:31:23;97121.53;;;5.17;100.00
20115;BME280;10218;42.874;25.320;2023-12-07T11:33:53;97120.53;;;5.08;100.00
20115;BME280;10218;42.874;25.320;2023-12-07T11:36:20;97115.00;;;5.11;100.00
20115;BME280;10218;42.874;25.320;2023-12-07T11:41:34;97125.66;;;4.22;100.00
20115;BME280;10218;42.874;25.320;2023-12-07T11:44:01;97121.78;;;4.76;100.00
20115;BME280;10218;42.874;25.320;2023-12-07T11:46:30;97122.88;;;4.73;100.00
20115;BME280;10218;42.874;25.320;2023-12-07T11:48:59;97120.00;;;5.24;100.00
20115;BME280;10218;42.874;25.320;2023-12-07T11:51:29;97112.87;;;4.77;100.00
20115;BME280;10218;42.874;25.320;2023-12-07T11:53:57;97108.62;;;4.45;100.00
20115;BME280;10218;42.874;25.320;2023-12-07T11:56:24;97120.53;;;5.08;100.00
20115;BME280;10218;42.874;25.320;2023-12-07T11:58:51;97131.19;;;4.49;100.00
20115;BME280;10218;42.874;25.320;2023-12-07T12:01:20;97114.28;;;5.00;100.00
20115;BME280;10218;42.874;25.320;2023-12-07T12:03:48;97116.75;;;4.72;100.00
20115;BME280;10218;42.874;25.320;2023-12-07T12:06:15;97114.69;;;5.14;100.00
20115;BME280;10218;42.874;25.320;2023-12-07T12:08:43;97115.78;;;4.64;100.00
20115;BME280;10218;42.874;25.320;2023-12-07T12:11:10;97120.41;;;5.10;100.00
20115;BME280;10218;42.874;25.320;2023-12-07T12:13:37;97125.72;;;5.20;100.00
20115;BME280;10218;42.874;25.320;2023-12-07T12:16:05;97126.50;;;5.49;100.00
20115;BME280;10218;42.874;25.320;2023-12-07T12:18:34;97122.75;;;4.84;100.00
20115;BME280;10218;42.874;25.320;2023-12-07T12:21:01;97116.22;;;5.36;100.00
20115;BME280;10218;42.874;25.320;2023-12-07T12:23:29;97118.31;;;5.04;100.00
20115;BME280;10218;42.874;25.320;2023-12-07T12:25:56;97123.22;;;5.18;100.00
20115;BME280;10218;42.874;25.320;2023-12-07T12:28:25;97121.25;;;5.30;100.00
20115;BME280;10218;42.874;25.320;2023-12-07T12:30:52;97123.47;;;4.96;100.00
20115;BME280;10218;42.874;25.320;2023-12-07T12:33:20;97111.50;;;5.11;100.00
20115;BME280;10218;42.874;25.320;2023-12-07T12:36:03;97122.09;;;4.82;100.00
20115;BME280;10218;42.874;25.320;2023-12-07T12:38:31;97127.19;;;4.55;100.00
20115;BME280;10218;42.874;25.320;2023-12-07T12:41:00;97125.41;;;5.03;100.00
20115;BME280;10218;42.874;25.320;2023-12-07T12:43:28;97129.44;;;5.55;100.00
20115;BME280;10218;42.874;25.320;2023-12-07T12:45:57;97112.72;;;4.88;100.00
20115;BME280;10218;42.874;25.320;2023-12-07T12:48:24;97132.81;;;5.19;100.00
20115;BME280;10218;42.874;25.320;2023-12-07T12:50:51;97129.56;;;4.67;100.00
20115;BME280;10218;42.874;25.320;2023-12-07T12:53:20;97130.44;;;5.35;100.00
20115;BME280;10218;42.874;25.320;2023-12-07T12:55:47;97127.50;;;5.19;100.00
20115;BME280;10218;42.874;25.320;2023-12-07T12:58:15;97124.59;;;5.22;100.00